Trebloc, Mississippi
Current Conditions -  °F | °C
As of 1:35 PM on Thursday 27 Nov 2014 (Local Time) from KM40 Reporting Station
Overcast Overcast  
Wind Chill: 40°   Ceiling: 3200
Heat Index: 45°   Visibility: 9mi
Dew Point: 32°   Wind: 9mph
Humidity: 61%   Direction: 340°NNW
Pressure: 30.46"   Gusts: NA
Location:  33.84°N, 88.83°W
Report Text: KM40 271935Z AUTO 34008KT 9SM OVC032 07/00 A3046 RMK AO2
Loading
Personal Weather Stations






























Interactive Weather Map New forecast layout! Learn more

10-Day Weather Forecast

Advertisements
Track Severe Weather on mobile